createdAt,value
2022-08-25T00:00:17.970Z,73.48
2022-08-25T00:02:55.223Z,73.26
2022-08-25T00:05:29.358Z,73.68
2022-08-25T00:08:01.982Z,73.09
2022-08-25T00:10:32.129Z,73.06
2022-08-25T00:13:01.051Z,73.44
2022-08-25T00:15:31.307Z,73.30
2022-08-25T00:18:01.014Z,74.04
2022-08-25T00:20:31.118Z,73.59
2022-08-25T00:22:59.790Z,72.87
2022-08-25T00:25:28.461Z,73.23
2022-08-25T00:27:59.131Z,72.64
2022-08-25T00:30:28.083Z,72.74
2022-08-25T00:32:57.439Z,73.32
2022-08-25T00:35:27.343Z,73.15
2022-08-25T00:37:56.463Z,73.13
2022-08-25T00:40:27.809Z,73.10
2022-08-25T00:42:58.177Z,73.59
2022-08-25T00:45:27.550Z,73.47
2022-08-25T00:47:59.920Z,73.64
2022-08-25T00:50:29.461Z,73.29
2022-08-25T00:53:00.396Z,73.16
2022-08-25T00:55:31.547Z,73.68
2022-08-25T00:58:06.470Z,73.89
2022-08-25T01:00:39.385Z,74.41
2022-08-25T01:03:08.405Z,74.31
2022-08-25T01:05:37.869Z,74.47
2022-08-25T01:08:07.809Z,73.34
2022-08-25T01:10:41.535Z,73.41
2022-08-25T01:13:16.870Z,73.18
2022-08-25T01:15:46.362Z,73.11
2022-08-25T01:18:15.658Z,73.19
2022-08-25T01:20:44.409Z,73.15
2022-08-25T01:23:14.754Z,73.79
2022-08-25T01:25:48.655Z,72.77
2022-08-25T01:28:18.040Z,73.51
2022-08-25T01:30:47.434Z,73.14
2022-08-25T01:33:17.235Z,72.97
2022-08-25T01:35:46.741Z,73.01
2022-08-25T01:38:17.520Z,73.44
2022-08-25T01:40:46.515Z,72.78
2022-08-25T01:43:22.897Z,73.11
2022-08-25T01:45:51.910Z,73.55
2022-08-25T01:48:20.719Z,74.10
2022-08-25T01:50:49.354Z,73.58
2022-08-25T01:53:24.833Z,73.52
2022-08-25T01:55:55.393Z,73.61
2022-08-25T01:58:26.524Z,73.31
2022-08-25T02:00:57.283Z,73.70
2022-08-25T02:03:26.535Z,73.85
2022-08-25T02:05:56.033Z,73.81
2022-08-25T02:08:26.355Z,73.25
2022-08-25T02:10:58.488Z,72.90
2022-08-25T02:13:31.421Z,73.04
2022-08-25T02:16:01.984Z,73.87
2022-08-25T02:18:31.032Z,74.04
2022-08-25T02:20:59.667Z,73.70
2022-08-25T02:23:29.964Z,73.88
2022-08-25T02:25:58.607Z,73.83
2022-08-25T02:28:27.385Z,73.58
2022-08-25T02:31:01.516Z,73.26
2022-08-25T02:33:30.493Z,73.21
2022-08-25T02:36:00.321Z,73.29
2022-08-25T02:38:30.805Z,73.10
2022-08-25T02:41:01.072Z,73.00
2022-08-25T02:43:30.149Z,73.60
2022-08-25T02:45:59.933Z,73.29
2022-08-25T02:48:28.603Z,73.65
2022-08-25T02:51:01.164Z,73.22
2022-08-25T02:53:31.412Z,73.26
2022-08-25T02:56:00.170Z,73.19
2022-08-25T02:58:29.140Z,74.18
2022-08-25T03:01:00.423Z,73.65
2022-08-25T03:03:29.536Z,73.97
2022-08-25T03:05:58.515Z,73.63
2022-08-25T03:08:27.313Z,73.46
2022-08-25T03:10:57.293Z,73.92
2022-08-25T03:13:26.195Z,74.16
2022-08-25T03:15:55.314Z,73.80
2022-08-25T03:18:24.748Z,73.54
2022-08-25T03:20:54.140Z,72.87
2022-08-25T03:23:22.878Z,73.28
2022-08-25T03:26:09.344Z,73.35
2022-08-25T03:28:39.659Z,72.56
2022-08-25T03:31:09.049Z,72.79
2022-08-25T03:33:38.724Z,73.82
2022-08-25T03:36:08.662Z,73.78
2022-08-25T03:38:38.404Z,73.89
2022-08-25T03:41:17.518Z,73.66
2022-08-25T03:43:48.188Z,74.07
2022-08-25T03:46:20.411Z,73.88
2022-08-25T03:48:49.234Z,74.42
2022-08-25T03:51:22.474Z,74.29
2022-08-25T03:53:51.769Z,73.85
2022-08-25T03:56:20.790Z,73.64
2022-08-25T03:58:51.169Z,74.26
2022-08-25T04:01:20.270Z,74.52
2022-08-25T04:03:49.288Z,74.23
2022-08-25T04:06:19.886Z,73.79
2022-08-25T04:08:48.922Z,74.20
2022-08-25T04:11:21.333Z,73.94
2022-08-25T04:13:52.981Z,73.92
2022-08-25T04:16:24.409Z,74.70
2022-08-25T04:18:54.162Z,75.95
2022-08-25T04:21:24.008Z,76.37
2022-08-25T04:23:53.871Z,75.68
2022-08-25T04:26:24.062Z,75.86
2022-08-25T04:28:55.183Z,75.12
2022-08-25T04:31:23.890Z,75.06
2022-08-25T04:33:53.081Z,75.93
2022-08-25T04:36:22.662Z,74.78
2022-08-25T04:38:51.658Z,76.16
2022-08-25T04:41:24.298Z,76.02
2022-08-25T04:43:54.357Z,75.24
2022-08-25T04:46:27.288Z,75.69
2022-08-25T04:48:57.348Z,76.04
2022-08-25T04:51:30.098Z,75.68
2022-08-25T04:54:01.931Z,74.43
2022-08-25T04:56:31.125Z,75.59
2022-08-25T04:59:04.431Z,75.10
2022-08-25T05:01:33.336Z,75.65
2022-08-25T05:04:04.236Z,74.74
2022-08-25T05:06:33.472Z,74.41
2022-08-25T05:09:03.516Z,74.27
2022-08-25T05:11:34.584Z,74.46
2022-08-25T05:14:05.622Z,74.06
2022-08-25T05:16:35.179Z,74.51
2022-08-25T05:19:04.824Z,74.78
2022-08-25T05:21:33.506Z,75.28
2022-08-25T05:24:03.348Z,74.39
2022-08-25T05:26:33.057Z,74.14
2022-08-25T05:29:05.070Z,74.10
2022-08-25T05:31:38.466Z,74.44
2022-08-25T05:34:12.194Z,71.20
2022-08-25T05:36:43.454Z,69.72
2022-08-25T05:39:12.531Z,70.34
2022-08-25T05:41:43.492Z,69.21
2022-08-25T05:44:19.081Z,66.10
2022-08-25T05:46:51.243Z,65.32
2022-08-25T05:49:20.246Z,65.75
2022-08-25T05:51:48.926Z,63.50
2022-08-25T05:54:17.573Z,63.03
2022-08-25T05:56:46.585Z,63.66
2022-08-25T05:59:16.624Z,64.22
2022-08-25T06:02:02.942Z,65.55
2022-08-25T06:04:32.461Z,67.08
2022-08-25T06:07:01.161Z,67.24
2022-08-25T06:09:29.866Z,68.16
2022-08-25T06:11:58.899Z,67.56
2022-08-25T06:14:28.891Z,68.29
2022-08-25T06:16:57.496Z,68.98
2022-08-25T06:19:26.447Z,68.70
2022-08-25T06:21:56.360Z,68.89
2022-08-25T06:24:25.852Z,68.00
2022-08-25T06:26:54.909Z,68.73
2022-08-25T06:29:24.301Z,68.54
2022-08-25T06:31:54.412Z,65.79
2022-08-25T06:34:24.301Z,66.47
2022-08-25T06:36:55.702Z,68.15
2022-08-25T06:39:25.093Z,68.36
2022-08-25T06:41:54.260Z,67.66
2022-08-25T06:44:23.503Z,68.96
2022-08-25T06:46:52.509Z,66.03
2022-08-25T06:49:22.950Z,66.53
2022-08-25T06:51:51.928Z,65.40
2022-08-25T06:54:20.670Z,65.62
2022-08-25T06:56:49.652Z,65.27
2022-08-25T06:59:18.967Z,64.27
2022-08-25T07:01:49.716Z,64.51
2022-08-25T07:04:19.248Z,64.76
2022-08-25T07:06:49.238Z,65.21
2022-08-25T07:09:18.408Z,66.06
2022-08-25T07:11:47.415Z,65.42
2022-08-25T07:14:17.432Z,65.28
2022-08-25T07:16:49.607Z,66.08
2022-08-25T07:19:21.468Z,64.84
2022-08-25T07:21:55.192Z,63.87
2022-08-25T07:24:24.399Z,65.04
2022-08-25T07:26:53.614Z,64.11
2022-08-25T07:29:32.367Z,63.99
2022-08-25T07:32:02.613Z,62.89
2022-08-25T07:37:49.274Z,61.86
2022-08-25T07:40:22.492Z,61.58
2022-08-25T07:42:56.777Z,61.19
2022-08-25T07:45:30.766Z,62.92
2022-08-25T07:48:03.506Z,63.05
2022-08-25T07:50:33.499Z,58.30
2022-08-25T07:53:03.777Z,59.32
2022-08-25T07:55:32.816Z,58.68
2022-08-25T07:58:01.401Z,59.33
2022-08-25T08:00:33.292Z,57.23
2022-08-25T08:03:03.952Z,57.49
2022-08-25T08:05:32.882Z,52.03
2022-08-25T08:08:03.500Z,56.30
2022-08-25T08:13:21.118Z,55.19
2022-08-25T08:15:50.163Z,56.32
2022-08-25T08:18:18.866Z,56.05
2022-08-25T08:20:48.435Z,54.22
2022-08-25T08:23:19.060Z,55.15
2022-08-25T08:25:48.237Z,54.52
2022-08-25T08:28:17.120Z,54.91
2022-08-25T08:30:53.191Z,54.83
2022-08-25T08:33:24.397Z,53.48
2022-08-25T08:36:00.603Z,51.68
2022-08-25T08:38:36.544Z,50.97
2022-08-25T08:41:33.946Z,50.75
2022-08-25T08:44:13.757Z,50.52
2022-08-25T08:46:47.425Z,49.98
2022-08-25T08:49:23.128Z,51.83
2022-08-25T08:52:00.480Z,50.44
2022-08-25T08:54:35.453Z,48.39
2022-08-25T08:57:09.831Z,49.73
2022-08-25T08:59:45.064Z,48.49
2022-08-25T09:02:39.514Z,50.30
2022-08-25T09:05:15.104Z,50.42
2022-08-25T09:07:48.372Z,49.35
2022-08-25T09:10:19.711Z,49.43
2022-08-25T09:12:59.168Z,49.38
2022-08-25T09:15:51.165Z,50.53
2022-08-25T09:18:28.923Z,48.38
2022-08-25T09:21:09.598Z,47.83
2022-08-25T09:23:47.560Z,46.86
2022-08-25T09:26:27.392Z,47.25
2022-08-25T09:29:03.282Z,47.63
2022-08-25T09:31:38.792Z,47.26
2022-08-25T09:34:20.367Z,48.56
2022-08-25T09:36:52.903Z,49.85
2022-08-25T09:39:23.461Z,49.01
2022-08-25T09:41:56.139Z,47.57
2022-08-25T09:44:26.459Z,46.34
2022-08-25T09:46:57.106Z,45.55
2022-08-25T09:49:40.304Z,45.24
2022-08-25T09:52:37.447Z,45.12
2022-08-25T09:55:28.183Z,45.96
2022-08-25T09:57:59.263Z,45.77
2022-08-25T10:00:30.780Z,44.44
2022-08-25T10:03:07.823Z,42.73
2022-08-25T10:05:49.426Z,41.78
2022-08-25T10:08:31.527Z,43.50
2022-08-25T10:11:01.927Z,42.01
2022-08-25T10:13:36.069Z,41.96
2022-08-25T10:16:07.996Z,43.69
2022-08-25T10:19:02.068Z,42.83
2022-08-25T10:21:30.788Z,42.56
2022-08-25T10:24:01.713Z,43.00
2022-08-25T10:26:38.948Z,40.78
2022-08-25T10:29:15.873Z,38.88
2022-08-25T10:31:49.457Z,39.21
2022-08-25T10:34:25.730Z,40.67
2022-08-25T10:37:11.613Z,41.65
2022-08-25T10:39:43.168Z,40.21
2022-08-25T10:42:26.032Z,40.06
2022-08-25T10:45:25.797Z,41.02
2022-08-25T10:48:20.986Z,41.23
2022-08-25T10:50:54.795Z,39.70
2022-08-25T10:53:29.674Z,39.66
2022-08-25T10:56:07.114Z,40.42
2022-08-25T10:59:01.796Z,39.02
2022-08-25T11:01:44.138Z,37.65
2022-08-25T11:04:15.669Z,38.54
2022-08-25T11:06:53.125Z,38.03
2022-08-25T11:09:26.840Z,39.36
2022-08-25T11:11:59.422Z,38.09
2022-08-25T11:14:34.547Z,37.03
2022-08-25T11:17:08.577Z,36.21
2022-08-25T11:19:39.472Z,35.35
2022-08-25T11:22:14.364Z,36.10
2022-08-25T11:24:55.093Z,37.90
2022-08-25T11:27:25.502Z,37.65
2022-08-25T11:30:01.824Z,37.20
2022-08-25T11:32:35.522Z,36.92
2022-08-25T11:35:07.971Z,36.84
2022-08-25T11:37:42.863Z,37.55
2022-08-25T11:40:50.198Z,37.08
2022-08-25T11:43:35.828Z,36.04
2022-08-25T11:46:28.340Z,35.15
2022-08-25T11:49:07.206Z,35.47
2022-08-25T11:51:42.631Z,35.16
2022-08-25T11:54:19.956Z,34.70
2022-08-25T11:56:58.485Z,33.68
2022-08-25T12:00:05.025Z,33.85
2022-08-25T12:02:39.185Z,34.12
2022-08-25T12:05:12.189Z,34.50
2022-08-25T12:08:22.772Z,33.18
2022-08-25T12:10:59.290Z,33.74
2022-08-25T12:13:40.791Z,34.20
2022-08-25T12:16:47.946Z,33.20
2022-08-25T12:19:30.340Z,33.03
2022-08-25T12:22:38.852Z,34.32
2022-08-25T12:25:11.676Z,33.29
2022-08-25T12:27:45.069Z,34.39
2022-08-25T12:30:20.785Z,32.91
2022-08-25T12:33:04.865Z,33.09
2022-08-25T12:35:41.061Z,31.90
2022-08-25T12:38:13.807Z,32.28
2022-08-25T12:40:55.924Z,32.27
2022-08-25T12:43:33.233Z,32.42
2022-08-25T12:46:34.776Z,33.37
2022-08-25T12:49:05.648Z,33.32
2022-08-25T12:51:54.624Z,33.39
2022-08-25T12:54:34.233Z,32.42
2022-08-25T12:57:07.217Z,33.46
2022-08-25T12:59:38.055Z,32.65
2022-08-25T13:02:51.961Z,33.96
2022-08-25T13:05:42.694Z,33.61
2022-08-25T13:08:37.099Z,32.01
2022-08-25T13:11:12.027Z,32.62
2022-08-25T13:13:47.591Z,30.97
2022-08-25T13:16:19.074Z,33.35
2022-08-25T13:18:51.691Z,34.50
2022-08-25T13:21:24.330Z,33.88
2022-08-25T13:24:01.590Z,35.73
2022-08-25T13:26:36.082Z,36.17
2022-08-25T13:29:14.573Z,35.98
2022-08-25T13:31:56.418Z,36.40
2022-08-25T13:34:30.454Z,36.97
2022-08-25T13:37:25.671Z,37.28
2022-08-25T13:40:12.356Z,35.55
2022-08-25T13:42:42.454Z,36.20
2022-08-25T13:45:15.814Z,36.85
2022-08-25T13:47:46.131Z,35.96
2022-08-25T13:50:22.798Z,35.74
2022-08-25T13:52:57.342Z,35.00
2022-08-25T13:55:38.181Z,33.92
2022-08-25T13:58:24.830Z,31.05
2022-08-25T14:01:23.186Z,32.08
2022-08-25T14:04:25.211Z,32.10
2022-08-25T14:07:14.272Z,30.79
2022-08-25T14:09:48.423Z,30.10
2022-08-25T14:12:39.534Z,30.61
2022-08-25T14:15:13.690Z,30.37
2022-08-25T14:17:48.013Z,31.54
2022-08-25T14:20:27.242Z,31.15
2022-08-25T14:22:58.264Z,32.74
2022-08-25T14:25:30.308Z,32.98
2022-08-25T14:28:08.295Z,31.29
2022-08-25T14:30:49.385Z,32.13
2022-08-25T14:33:22.360Z,32.40
2022-08-25T14:35:55.269Z,32.10
2022-08-25T14:38:24.405Z,31.80
2022-08-25T14:40:53.922Z,30.13
2022-08-25T14:43:24.135Z,30.61
2022-08-25T14:46:02.591Z,30.42
2022-08-25T14:48:34.336Z,31.26
2022-08-25T14:51:05.453Z,31.96
2022-08-25T14:53:34.259Z,32.64
2022-08-25T14:56:08.399Z,31.86
2022-08-25T14:58:50.928Z,32.94
2022-08-25T15:01:28.914Z,33.72
2022-08-25T15:04:02.241Z,34.53
2022-08-25T15:06:33.453Z,34.90
2022-08-25T15:09:11.612Z,35.44
2022-08-25T15:11:42.344Z,35.52
2022-08-25T15:14:12.439Z,35.11
2022-08-25T15:16:42.354Z,35.86
2022-08-25T15:19:14.619Z,36.19
2022-08-25T15:21:47.525Z,36.30
2022-08-25T15:24:17.991Z,36.23
2022-08-25T15:29:28.005Z,37.32
2022-08-25T15:31:57.452Z,37.56
2022-08-25T15:34:26.170Z,37.39
2022-08-25T15:36:56.225Z,38.30
2022-08-25T15:39:25.311Z,38.62
2022-08-25T15:41:54.204Z,38.50
2022-08-25T15:44:28.990Z,39.18
2022-08-25T15:46:59.288Z,39.16
2022-08-25T15:49:29.731Z,39.46
2022-08-25T15:52:02.231Z,40.40
2022-08-25T15:54:32.192Z,40.07
2022-08-25T15:57:01.134Z,40.39
2022-08-25T15:59:30.821Z,40.30
2022-08-25T16:02:00.474Z,39.59
2022-08-25T16:04:30.218Z,39.99
2022-08-25T16:07:01.586Z,40.12
2022-08-25T16:09:31.319Z,40.19
2022-08-25T16:12:05.418Z,41.18
2022-08-25T16:14:38.097Z,40.85
2022-08-25T16:17:07.189Z,40.79
2022-08-25T16:19:38.310Z,40.98
2022-08-25T16:22:11.247Z,41.46
2022-08-25T16:24:45.058Z,40.79
2022-08-25T16:27:14.788Z,41.48
2022-08-25T16:29:45.590Z,41.72
2022-08-25T16:32:15.644Z,41.98
2022-08-25T16:34:44.771Z,41.73
2022-08-25T16:37:14.786Z,41.62
2022-08-25T16:39:46.148Z,41.26
2022-08-25T16:42:15.129Z,41.61
2022-08-25T16:44:44.178Z,41.64
2022-08-25T16:47:14.381Z,42.26
2022-08-25T16:49:46.912Z,42.12
2022-08-25T16:52:34.703Z,42.70
2022-08-25T16:55:15.203Z,42.65
2022-08-25T16:57:47.538Z,42.79
2022-08-25T17:00:19.311Z,43.64
2022-08-25T17:02:48.674Z,43.04
2022-08-25T17:05:18.224Z,43.82
2022-08-25T17:08:08.746Z,43.63
2022-08-25T17:10:38.885Z,43.57
2022-08-25T17:13:08.254Z,43.93
2022-08-25T17:15:40.832Z,43.89
2022-08-25T17:18:11.196Z,43.76
2022-08-25T17:20:42.118Z,44.22
2022-08-25T17:23:14.093Z,44.82
2022-08-25T17:25:43.485Z,44.42
2022-08-25T17:28:13.190Z,44.91
2022-08-25T17:30:43.248Z,44.99
2022-08-25T17:33:15.173Z,45.08
2022-08-25T17:35:45.752Z,45.18
2022-08-25T17:38:17.098Z,45.10
2022-08-25T17:40:48.103Z,45.18
2022-08-25T17:43:17.487Z,45.02
2022-08-25T17:45:47.887Z,45.10
2022-08-25T17:48:17.317Z,45.28
2022-08-25T17:50:46.979Z,46.17
2022-08-25T17:53:17.411Z,46.11
2022-08-25T17:55:47.539Z,46.72
2022-08-25T17:58:17.293Z,45.63
2022-08-25T18:00:47.078Z,47.35
2022-08-25T18:03:15.955Z,46.83
2022-08-25T18:05:45.189Z,47.38
2022-08-25T18:08:16.124Z,47.58
2022-08-25T18:10:48.938Z,48.23
2022-08-25T18:13:17.997Z,48.63
2022-08-25T18:15:46.977Z,49.68
2022-08-25T18:18:16.412Z,48.88
2022-08-25T18:20:46.628Z,49.62
2022-08-25T18:23:17.709Z,49.91
2022-08-25T18:25:49.449Z,50.38
2022-08-25T18:28:18.460Z,50.89
2022-08-25T18:30:47.305Z,51.38
2022-08-25T18:33:18.929Z,51.49
2022-08-25T18:35:47.961Z,51.47
2022-08-25T18:38:34.485Z,51.51
2022-08-25T18:41:07.836Z,52.29
2022-08-25T18:43:37.039Z,52.95
2022-08-25T18:46:06.404Z,52.58
2022-08-25T18:48:36.972Z,52.25
2022-08-25T18:51:07.731Z,52.58
2022-08-25T18:53:50.047Z,53.13
2022-08-25T18:56:22.452Z,52.33
2022-08-25T18:58:51.090Z,52.59
2022-08-25T19:01:20.779Z,52.66
2022-08-25T19:03:50.316Z,52.60
2022-08-25T19:06:19.495Z,52.02
2022-08-25T19:08:50.029Z,53.22
2022-08-25T19:11:22.184Z,52.53
2022-08-25T19:13:53.294Z,52.85
2022-08-25T19:16:34.832Z,52.47
2022-08-25T19:19:06.389Z,52.09
2022-08-25T19:21:36.077Z,53.08
2022-08-25T19:24:05.387Z,53.19
2022-08-25T19:26:37.352Z,54.07
2022-08-25T19:29:12.179Z,54.90
2022-08-25T19:31:43.255Z,55.04
2022-08-25T19:34:17.885Z,54.95
2022-08-25T19:36:48.116Z,54.69
2022-08-25T19:39:17.168Z,54.17
2022-08-25T19:41:47.232Z,53.78
2022-08-25T19:44:18.991Z,53.33
2022-08-25T19:46:47.801Z,53.70
2022-08-25T19:49:22.981Z,53.89
2022-08-25T19:51:53.115Z,53.77
2022-08-25T19:54:24.817Z,53.90
2022-08-25T19:56:55.477Z,53.46
2022-08-25T19:59:40.518Z,52.89
2022-08-25T20:02:15.448Z,52.65
2022-08-25T20:04:49.671Z,52.46
2022-08-25T20:07:19.512Z,53.39
2022-08-25T20:09:48.752Z,53.07
2022-08-25T20:12:18.057Z,53.56
2022-08-25T20:14:49.276Z,53.49
2022-08-25T20:17:23.798Z,53.57
2022-08-25T20:19:55.472Z,53.92
2022-08-25T20:22:26.385Z,54.12
2022-08-25T20:24:57.953Z,54.57
2022-08-25T20:27:31.612Z,55.20
2022-08-25T20:30:03.260Z,54.56
2022-08-25T20:32:33.683Z,54.98
2022-08-25T20:35:02.847Z,55.11
2022-08-25T20:37:34.085Z,55.46
2022-08-25T20:40:03.210Z,55.24
2022-08-25T20:42:32.391Z,55.51
2022-08-25T20:45:02.522Z,55.64
2022-08-25T20:47:31.663Z,55.11
2022-08-25T20:50:05.968Z,54.79
2022-08-25T20:52:36.399Z,55.43
2022-08-25T20:55:08.778Z,56.40
2022-08-25T20:57:38.026Z,56.66
2022-08-25T21:00:10.084Z,56.25
2022-08-25T21:02:39.145Z,56.13
2022-08-25T21:05:08.792Z,56.56
2022-08-25T21:07:37.436Z,56.29
2022-08-25T21:10:10.379Z,56.10
2022-08-25T21:12:39.652Z,55.92
2022-08-25T21:15:11.682Z,56.20
2022-08-25T21:17:40.890Z,56.11
2022-08-25T21:20:10.886Z,56.63
2022-08-25T21:22:39.909Z,56.52
2022-08-25T21:25:12.481Z,56.91
2022-08-25T21:27:41.385Z,56.81
2022-08-25T21:30:14.808Z,56.61
2022-08-25T21:32:52.702Z,57.19
2022-08-25T21:35:22.975Z,56.97
2022-08-25T21:37:53.139Z,57.20
2022-08-25T21:40:23.065Z,57.64
2022-08-25T21:42:52.724Z,57.38
2022-08-25T21:45:22.759Z,57.43
2022-08-25T21:47:51.738Z,57.01
2022-08-25T21:50:22.127Z,58.14
2022-08-25T21:52:54.692Z,57.66
2022-08-25T21:55:24.131Z,57.78
2022-08-25T21:57:54.690Z,58.08
2022-08-25T22:00:25.263Z,57.85
2022-08-25T22:02:54.034Z,58.22
2022-08-25T22:05:23.660Z,58.13
2022-08-25T22:07:52.303Z,58.64
2022-08-25T22:10:21.707Z,58.78
2022-08-25T22:12:51.729Z,58.65
2022-08-25T22:15:20.560Z,58.83
2022-08-25T22:17:54.816Z,58.96
2022-08-25T22:20:23.466Z,59.19
2022-08-25T22:22:54.352Z,59.33
2022-08-25T22:25:23.825Z,59.07
2022-08-25T22:27:56.627Z,59.13
2022-08-25T22:30:27.677Z,58.94
2022-08-25T22:33:00.162Z,59.45
2022-08-25T22:35:29.999Z,59.71
2022-08-25T22:37:59.267Z,60.23
2022-08-25T22:40:28.288Z,59.92
2022-08-25T22:42:57.759Z,60.20
2022-08-25T22:45:27.876Z,60.08
2022-08-25T22:47:57.022Z,60.17
2022-08-25T22:50:27.453Z,60.43
2022-08-25T22:52:56.455Z,60.26
2022-08-25T22:55:25.210Z,60.79
2022-08-25T22:57:57.189Z,60.89
2022-08-25T23:00:25.978Z,60.68
2022-08-25T23:02:54.667Z,60.79
2022-08-25T23:05:23.681Z,60.52
2022-08-25T23:07:56.191Z,60.02
2022-08-25T23:10:25.861Z,61.09
2022-08-25T23:12:54.496Z,60.58
2022-08-25T23:15:23.290Z,61.09
2022-08-25T23:17:52.194Z,60.64
2022-08-25T23:20:45.728Z,60.88
2022-08-25T23:23:16.164Z,61.02
2022-08-25T23:25:45.091Z,61.55
2022-08-25T23:28:14.202Z,61.01
2022-08-25T23:30:44.953Z,60.88
2022-08-25T23:33:26.945Z,61.31
2022-08-25T23:36:00.301Z,61.43
2022-08-25T23:38:30.788Z,61.59
2022-08-25T23:40:59.598Z,61.06
2022-08-25T23:43:28.207Z,61.27
2022-08-25T23:45:57.270Z,61.20
2022-08-25T23:48:26.659Z,60.92
2022-08-25T23:50:55.326Z,61.18
2022-08-25T23:53:24.374Z,61.00
2022-08-25T23:55:54.700Z,61.32
2022-08-25T23:58:25.200Z,62.20
